Current Weather Around the State

 

KBDE - Baudette, Minnesota, USA
Distance from station: N 88mi, 142km
Updated: Sun, 14-Jul-2024 11:53pm CDT
Partly cloudy
Partly cloudy
 Wind from calm
Wind: Calm
Temperature: 70°F, 21°C
Dew Point: 61°F, 16°C
Humidity: 73%
Barometer: 29.84 inHg, 1010.5 hPa
Clouds: Partly cloudy
Visibility: 10 miles, 16 km
Cloud details: Partly cloudy 11000 ft
2024/07/15 04:53 KBDE 150453Z AUTO 00000KT 10SM SCT110 21/16 A2984 RMK AO2 SLP101 T02060161
KBJI - Bemidji, Minnesota, USA
Distance from station: NW 3mi, 4km
Updated: Mon, 15-Jul-2024 12:35am CDT
Clear
Clear
 Wind from calm
Wind: Calm
Temperature: 63°F, 17°C
Dew Point: 63°F, 17°C
Humidity: 100%
Barometer: 29.87 inHg, 1011.5 hPa
Clouds: Clear
Visibility: 10 miles, 16 km
2024/07/15 05:35 KBJI 150535Z AUTO 00000KT 10SM CLR 17/17 A2987 RMK AO2 T01700169
 
KDLH - Duluth, Minnesota, USA
Distance from station: NW 6mi, 10km
Updated: Sun, 14-Jul-2024 11:55pm CDT
Clear
Clear
 Wind from calm
Wind: Calm
Temperature: 66°F, 19°C
Dew Point: 59°F, 15°C
Humidity: 78%
Barometer: 29.87 inHg, 1011.5 hPa
Clouds: Clear
Visibility: 10 miles, 16 km
2024/07/15 04:55 KDLH 150455Z 00000KT 10SM CLR 19/15 A2987 RMK AO2 SLP109 T01940150
KBRD - Brainerd, Minnesota, USA
Distance from station: SSE 82mi, 132km
Updated: Sun, 14-Jul-2024 11:53pm CDT
Clear
Clear
 Wind from calm
Wind: Calm
Temperature: 66°F, 19°C
Dew Point: 64°F, 18°C
Humidity: 94%
Barometer: 29.87 inHg, 1011.5 hPa
Clouds: Clear
Visibility: 8 miles, 13 km
2024/07/15 04:53 KBRD 150453Z AUTO 00000KT 8SM CLR 19/18 A2987 RMK AO2 SLP107 T01940178
 
KSTC - St. Cloud, Minnesota, USA
Distance from station: NNE 20mi, 32km
Updated: Sun, 14-Jul-2024 11:53pm CDT
Clear
Clear
 Wind from calm
Wind: Calm
Temperature: 72°F, 22°C
Dew Point: 66°F, 19°C
Humidity: 83%
Barometer: 29.86 inHg, 1011.2 hPa
Clouds: Clear
Visibility: 10 miles, 16 km
2024/07/15 04:53 KSTC 150453Z AUTO 00000KT 10SM CLR 22/19 A2986 RMK AO2 SLP114 T02170194 $
KBDH - Willmar Muni, Minnesota, USA
Distance from station: WSW 47mi, 76km
Updated: Mon, 15-Jul-2024 12:35am CDT
Clear
Clear
 Wind from ENE
Wind: ENE 3 mph, 6 km/h
Temperature: 68°F, 20°C
Dew Point: 66°F, 19°C
Humidity: 94%
Barometer: 29.86 inHg, 1011.2 hPa
Clouds: Clear
Visibility: 9 miles, 14 km
2024/07/15 05:35 KBDH 150535Z AUTO 07003KT 9SM CLR 20/19 A2986 RMK AO2
 
KLXL - Little Falls, Minnesota, USA
Distance from station: N 47mi, 76km
Updated: Mon, 15-Jul-2024 12:35am CDT
Clear
Clear
 Wind from calm
Wind: Calm
Temperature: 64°F, 18°C
Dew Point: 63°F, 17°C
Humidity: 94%
Barometer: 29.86 inHg, 1011.2 hPa
Clouds: Clear
Visibility: 10 miles, 16 km
2024/07/15 05:35 KLXL 150535Z AUTO 00000KT 10SM CLR 18/17 A2986 RMK AO2
KMSP - Minneapolis, Minnesota, USA
Distance from station: ESE 54mi, 87km
Updated: Sun, 14-Jul-2024 11:53pm CDT
Clear
Clear
 Wind from NW
Wind: NW 5 mph, 7 km/h
Temperature: 77°F, 25°C
Dew Point: 68°F, 20°C
Humidity: 74%
Barometer: 29.86 inHg, 1011.2 hPa
Clouds: Clear
Visibility: 10 miles, 16 km
2024/07/15 04:53 KMSP 150453Z 31004KT 10SM CLR 25/20 A2986 RMK AO2 SLP103 T02500200
 
KMML - Marshall/Ryan, Minnesota, USA
Distance from station: W 1mi, 2km
Updated: Sun, 14-Jul-2024 11:56pm CDT
Clear
Clear
 Wind from calm
Wind: Calm
Temperature: 73°F, 23°C
Dew Point: 70°F, 21°C
Humidity: 89%
Barometer: 29.88 inHg, 1011.9 hPa
Clouds: Clear
Visibility: 10 miles, 16 km
2024/07/15 04:56 KMML 150456Z AUTO 00000KT 10SM CLR 23/21 A2988 RMK AO2 SLP111 T02280211
KRST - Rochester, Minnesota, USA
Distance from station: S 8mi, 13km
Updated: Sun, 14-Jul-2024 11:54pm CDT
Few Clouds
Few Clouds
 Wind from W
Wind: W 6 mph, 9 km/h
Temperature: 73°F, 23°C
Dew Point: 72°F, 22°C
Humidity: 94%
Barometer: 29.88 inHg, 1011.9 hPa
Clouds: Few Clouds
Visibility: 10 miles, 16 km
Cloud details: Few Clouds 3700 ft
2024/07/15 04:54 KRST 150454Z 27005KT 10SM FEW037 23/22 A2988 RMK AO2 SLP112 T02280217